sensor_id;sensor_type;location;lat;lon;timestamp;P1;durP1;ratioP1;P2;durP2;ratioP2
8837;SDS011;4455;50.880;4.698;2022-08-01T00:00:30;3.43;;;1.63;;
8837;SDS011;4455;50.880;4.698;2022-08-01T00:02:56;2.00;;;1.50;;
8837;SDS011;4455;50.880;4.698;2022-08-01T00:05:22;2.50;;;1.90;;
8837;SDS011;4455;50.880;4.698;2022-08-01T00:07:48;2.93;;;2.00;;
8837;SDS011;4455;50.880;4.698;2022-08-01T00:10:15;2.77;;;1.90;;
8837;SDS011;4455;50.880;4.698;2022-08-01T00:12:42;3.47;;;1.70;;
8837;SDS011;4455;50.880;4.698;2022-08-01T00:15:10;3.33;;;2.30;;
8837;SDS011;4455;50.880;4.698;2022-08-01T00:17:38;3.17;;;2.10;;
8837;SDS011;4455;50.880;4.698;2022-08-01T00:20:05;3.63;;;2.10;;
8837;SDS011;4455;50.880;4.698;2022-08-01T00:22:35;3.07;;;2.20;;
8837;SDS011;4455;50.880;4.698;2022-08-01T00:25:01;3.97;;;2.53;;
8837;SDS011;4455;50.880;4.698;2022-08-01T00:27:28;3.07;;;2.30;;
8837;SDS011;4455;50.880;4.698;2022-08-01T00:29:54;4.10;;;2.80;;
8837;SDS011;4455;50.880;4.698;2022-08-01T00:32:19;3.80;;;3.30;;
8837;SDS011;4455;50.880;4.698;2022-08-01T00:34:45;3.80;;;2.83;;
8837;SDS011;4455;50.880;4.698;2022-08-01T00:37:11;3.33;;;2.87;;
8837;SDS011;4455;50.880;4.698;2022-08-01T00:39:37;6.77;;;3.47;;
8837;SDS011;4455;50.880;4.698;2022-08-01T00:42:06;5.00;;;3.27;;
8837;SDS011;4455;50.880;4.698;2022-08-01T00:44:34;4.77;;;3.37;;
8837;SDS011;4455;50.880;4.698;2022-08-01T00:47:00;6.73;;;3.00;;
8837;SDS011;4455;50.880;4.698;2022-08-01T00:49:26;7.23;;;2.93;;
8837;SDS011;4455;50.880;4.698;2022-08-01T00:51:52;5.63;;;3.00;;
8837;SDS011;4455;50.880;4.698;2022-08-01T00:54:19;5.57;;;3.20;;
8837;SDS011;4455;50.880;4.698;2022-08-01T00:56:45;3.87;;;3.10;;
8837;SDS011;4455;50.880;4.698;2022-08-01T00:59:11;6.30;;;3.07;;
8837;SDS011;4455;50.880;4.698;2022-08-01T01:01:37;3.90;;;2.80;;
8837;SDS011;4455;50.880;4.698;2022-08-01T01:04:03;5.17;;;3.40;;
8837;SDS011;4455;50.880;4.698;2022-08-01T01:09:44;5.73;;;3.00;;
8837;SDS011;4455;50.880;4.698;2022-08-01T01:17:16;5.40;;;3.13;;
8837;SDS011;4455;50.880;4.698;2022-08-01T01:19:47;6.23;;;3.70;;
8837;SDS011;4455;50.880;4.698;2022-08-01T01:25:14;4.83;;;3.57;;
8837;SDS011;4455;50.880;4.698;2022-08-01T01:30:37;6.73;;;3.77;;
8837;SDS011;4455;50.880;4.698;2022-08-01T01:33:06;4.00;;;3.37;;
8837;SDS011;4455;50.880;4.698;2022-08-01T01:35:37;6.93;;;3.60;;
8837;SDS011;4455;50.880;4.698;2022-08-01T01:38:09;6.30;;;3.93;;
8837;SDS011;4455;50.880;4.698;2022-08-01T01:40:40;5.37;;;3.90;;
8837;SDS011;4455;50.880;4.698;2022-08-01T01:43:09;5.70;;;3.37;;
8837;SDS011;4455;50.880;4.698;2022-08-01T01:45:37;5.27;;;3.83;;
8837;SDS011;4455;50.880;4.698;2022-08-01T01:48:05;4.53;;;3.60;;
8837;SDS011;4455;50.880;4.698;2022-08-01T01:50:34;4.10;;;3.67;;
8837;SDS011;4455;50.880;4.698;2022-08-01T01:53:01;5.57;;;3.83;;
8837;SDS011;4455;50.880;4.698;2022-08-01T01:55:29;4.90;;;3.53;;
8837;SDS011;4455;50.880;4.698;2022-08-01T01:57:56;6.13;;;4.07;;
8837;SDS011;4455;50.880;4.698;2022-08-01T02:00:22;7.23;;;4.23;;
8837;SDS011;4455;50.880;4.698;2022-08-01T02:02:50;6.53;;;3.67;;
8837;SDS011;4455;50.880;4.698;2022-08-01T02:05:20;5.43;;;3.37;;
8837;SDS011;4455;50.880;4.698;2022-08-01T02:07:47;6.83;;;4.17;;
8837;SDS011;4455;50.880;4.698;2022-08-01T02:10:14;5.57;;;3.20;;
8837;SDS011;4455;50.880;4.698;2022-08-01T02:12:43;7.10;;;4.00;;
8837;SDS011;4455;50.880;4.698;2022-08-01T02:15:11;4.77;;;3.40;;
8837;SDS011;4455;50.880;4.698;2022-08-01T02:17:42;7.97;;;3.73;;
8837;SDS011;4455;50.880;4.698;2022-08-01T02:20:10;4.07;;;3.37;;
8837;SDS011;4455;50.880;4.698;2022-08-01T02:22:37;4.73;;;3.33;;
8837;SDS011;4455;50.880;4.698;2022-08-01T02:25:22;6.30;;;3.83;;
8837;SDS011;4455;50.880;4.698;2022-08-01T02:30:50;4.53;;;3.33;;
8837;SDS011;4455;50.880;4.698;2022-08-01T02:33:17;6.27;;;4.13;;
8837;SDS011;4455;50.880;4.698;2022-08-01T02:35:47;5.53;;;4.77;;
8837;SDS011;4455;50.880;4.698;2022-08-01T02:38:15;4.83;;;4.37;;
8837;SDS011;4455;50.880;4.698;2022-08-01T02:40:44;6.67;;;3.90;;
8837;SDS011;4455;50.880;4.698;2022-08-01T02:43:12;7.73;;;5.40;;
8837;SDS011;4455;50.880;4.698;2022-08-01T02:45:43;7.27;;;4.87;;
8837;SDS011;4455;50.880;4.698;2022-08-01T02:48:13;5.87;;;4.77;;
8837;SDS011;4455;50.880;4.698;2022-08-01T02:50:42;9.13;;;4.90;;
8837;SDS011;4455;50.880;4.698;2022-08-01T02:53:10;8.23;;;4.83;;
8837;SDS011;4455;50.880;4.698;2022-08-01T02:55:38;8.07;;;5.03;;
8837;SDS011;4455;50.880;4.698;2022-08-01T02:58:06;6.47;;;5.10;;
8837;SDS011;4455;50.880;4.698;2022-08-01T03:00:34;5.73;;;5.20;;
8837;SDS011;4455;50.880;4.698;2022-08-01T03:03:01;6.97;;;4.93;;
8837;SDS011;4455;50.880;4.698;2022-08-01T03:05:29;6.70;;;4.90;;
8837;SDS011;4455;50.880;4.698;2022-08-01T03:07:57;7.03;;;5.40;;
8837;SDS011;4455;50.880;4.698;2022-08-01T03:10:26;9.83;;;6.53;;
8837;SDS011;4455;50.880;4.698;2022-08-01T03:12:54;7.80;;;5.80;;
8837;SDS011;4455;50.880;4.698;2022-08-01T03:15:23;9.93;;;6.37;;
8837;SDS011;4455;50.880;4.698;2022-08-01T03:17:51;10.03;;;6.63;;
8837;SDS011;4455;50.880;4.698;2022-08-01T03:20:20;10.60;;;7.87;;
8837;SDS011;4455;50.880;4.698;2022-08-01T03:22:49;10.63;;;8.17;;
8837;SDS011;4455;50.880;4.698;2022-08-01T03:25:18;10.07;;;8.23;;
8837;SDS011;4455;50.880;4.698;2022-08-01T03:27:47;9.87;;;7.43;;
8837;SDS011;4455;50.880;4.698;2022-08-01T03:30:19;10.83;;;7.70;;
8837;SDS011;4455;50.880;4.698;2022-08-01T03:32:47;8.50;;;7.33;;
8837;SDS011;4455;50.880;4.698;2022-08-01T03:35:13;11.40;;;8.17;;
8837;SDS011;4455;50.880;4.698;2022-08-01T03:37:44;15.20;;;8.00;;
8837;SDS011;4455;50.880;4.698;2022-08-01T03:40:17;11.73;;;8.10;;
8837;SDS011;4455;50.880;4.698;2022-08-01T03:42:50;12.57;;;8.07;;
8837;SDS011;4455;50.880;4.698;2022-08-01T03:45:22;16.30;;;9.40;;
8837;SDS011;4455;50.880;4.698;2022-08-01T03:47:55;17.50;;;11.00;;
8837;SDS011;4455;50.880;4.698;2022-08-01T03:50:26;16.57;;;11.47;;
8837;SDS011;4455;50.880;4.698;2022-08-01T03:52:53;14.63;;;11.00;;
8837;SDS011;4455;50.880;4.698;2022-08-01T03:55:22;20.93;;;11.63;;
8837;SDS011;4455;50.880;4.698;2022-08-01T03:57:49;17.00;;;11.80;;
8837;SDS011;4455;50.880;4.698;2022-08-01T04:00:16;22.43;;;12.53;;
8837;SDS011;4455;50.880;4.698;2022-08-01T04:02:47;19.10;;;13.40;;
8837;SDS011;4455;50.880;4.698;2022-08-01T04:05:14;19.93;;;12.93;;
8837;SDS011;4455;50.880;4.698;2022-08-01T04:07:47;23.37;;;13.73;;
8837;SDS011;4455;50.880;4.698;2022-08-01T04:10:21;26.13;;;14.37;;
8837;SDS011;4455;50.880;4.698;2022-08-01T04:12:48;18.37;;;12.10;;
8837;SDS011;4455;50.880;4.698;2022-08-01T04:15:14;23.47;;;13.93;;
8837;SDS011;4455;50.880;4.698;2022-08-01T04:17:39;21.00;;;13.87;;
8837;SDS011;4455;50.880;4.698;2022-08-01T04:20:06;22.13;;;14.00;;
8837;SDS011;4455;50.880;4.698;2022-08-01T04:22:33;18.93;;;13.23;;
8837;SDS011;4455;50.880;4.698;2022-08-01T04:25:01;18.30;;;13.63;;
8837;SDS011;4455;50.880;4.698;2022-08-01T04:27:35;23.80;;;14.57;;
8837;SDS011;4455;50.880;4.698;2022-08-01T04:30:05;27.63;;;14.93;;
8837;SDS011;4455;50.880;4.698;2022-08-01T04:32:35;22.73;;;15.43;;
8837;SDS011;4455;50.880;4.698;2022-08-01T04:35:04;22.47;;;14.63;;
8837;SDS011;4455;50.880;4.698;2022-08-01T04:37:32;20.97;;;14.70;;
8837;SDS011;4455;50.880;4.698;2022-08-01T04:40:03;23.07;;;14.33;;
8837;SDS011;4455;50.880;4.698;2022-08-01T04:42:31;21.37;;;14.63;;
8837;SDS011;4455;50.880;4.698;2022-08-01T04:44:59;19.90;;;13.77;;
8837;SDS011;4455;50.880;4.698;2022-08-01T04:47:25;20.17;;;14.17;;
8837;SDS011;4455;50.880;4.698;2022-08-01T04:49:52;20.57;;;13.97;;
8837;SDS011;4455;50.880;4.698;2022-08-01T04:52:19;20.87;;;13.03;;
8837;SDS011;4455;50.880;4.698;2022-08-01T04:54:45;17.57;;;12.23;;
8837;SDS011;4455;50.880;4.698;2022-08-01T04:57:11;16.13;;;11.30;;
8837;SDS011;4455;50.880;4.698;2022-08-01T04:59:38;18.67;;;12.07;;
8837;SDS011;4455;50.880;4.698;2022-08-01T05:02:15;17.13;;;12.47;;
8837;SDS011;4455;50.880;4.698;2022-08-01T05:04:43;17.07;;;12.57;;
8837;SDS011;4455;50.880;4.698;2022-08-01T05:07:10;18.60;;;12.13;;
8837;SDS011;4455;50.880;4.698;2022-08-01T05:09:37;16.23;;;12.83;;
8837;SDS011;4455;50.880;4.698;2022-08-01T05:12:06;19.90;;;12.50;;
8837;SDS011;4455;50.880;4.698;2022-08-01T05:14:33;17.37;;;12.40;;
8837;SDS011;4455;50.880;4.698;2022-08-01T05:17:00;17.60;;;11.83;;
8837;SDS011;4455;50.880;4.698;2022-08-01T05:19:32;16.73;;;12.13;;
8837;SDS011;4455;50.880;4.698;2022-08-01T05:21:59;16.33;;;9.97;;
8837;SDS011;4455;50.880;4.698;2022-08-01T05:24:29;17.93;;;10.43;;
8837;SDS011;4455;50.880;4.698;2022-08-01T05:26:56;13.43;;;9.83;;
8837;SDS011;4455;50.880;4.698;2022-08-01T05:29:23;14.80;;;10.53;;
8837;SDS011;4455;50.880;4.698;2022-08-01T05:31:49;13.17;;;9.67;;
8837;SDS011;4455;50.880;4.698;2022-08-01T05:34:15;16.47;;;10.70;;
8837;SDS011;4455;50.880;4.698;2022-08-01T05:36:42;16.50;;;10.73;;
8837;SDS011;4455;50.880;4.698;2022-08-01T05:39:08;13.53;;;10.27;;
8837;SDS011;4455;50.880;4.698;2022-08-01T05:41:33;16.63;;;9.60;;
8837;SDS011;4455;50.880;4.698;2022-08-01T05:44:02;12.73;;;9.83;;
8837;SDS011;4455;50.880;4.698;2022-08-01T05:46:28;13.20;;;10.87;;
8837;SDS011;4455;50.880;4.698;2022-08-01T05:48:56;14.60;;;10.67;;
8837;SDS011;4455;50.880;4.698;2022-08-01T05:51:22;17.00;;;9.97;;
8837;SDS011;4455;50.880;4.698;2022-08-01T05:53:48;13.13;;;10.10;;
8837;SDS011;4455;50.880;4.698;2022-08-01T05:56:14;14.03;;;10.03;;
8837;SDS011;4455;50.880;4.698;2022-08-01T05:58:40;14.87;;;10.13;;
8837;SDS011;4455;50.880;4.698;2022-08-01T06:01:06;11.90;;;9.33;;
8837;SDS011;4455;50.880;4.698;2022-08-01T06:03:31;14.30;;;9.23;;
8837;SDS011;4455;50.880;4.698;2022-08-01T06:05:58;16.67;;;10.20;;
8837;SDS011;4455;50.880;4.698;2022-08-01T06:08:25;12.37;;;9.50;;
8837;SDS011;4455;50.880;4.698;2022-08-01T06:10:51;12.23;;;9.07;;
8837;SDS011;4455;50.880;4.698;2022-08-01T06:13:17;14.17;;;8.60;;
8837;SDS011;4455;50.880;4.698;2022-08-01T06:15:44;11.77;;;8.13;;
8837;SDS011;4455;50.880;4.698;2022-08-01T06:18:11;10.40;;;7.50;;
8837;SDS011;4455;50.880;4.698;2022-08-01T06:20:37;14.03;;;8.20;;
8837;SDS011;4455;50.880;4.698;2022-08-01T06:23:03;11.20;;;8.90;;
8837;SDS011;4455;50.880;4.698;2022-08-01T06:25:29;14.07;;;7.93;;
8837;SDS011;4455;50.880;4.698;2022-08-01T06:27:55;11.27;;;7.87;;
8837;SDS011;4455;50.880;4.698;2022-08-01T06:30:21;9.37;;;7.93;;
8837;SDS011;4455;50.880;4.698;2022-08-01T06:32:47;10.07;;;7.33;;
8837;SDS011;4455;50.880;4.698;2022-08-01T06:35:13;10.30;;;6.87;;
8837;SDS011;4455;50.880;4.698;2022-08-01T06:37:39;9.43;;;7.33;;
8837;SDS011;4455;50.880;4.698;2022-08-01T06:40:06;9.17;;;6.50;;
8837;SDS011;4455;50.880;4.698;2022-08-01T06:42:36;7.67;;;6.33;;
8837;SDS011;4455;50.880;4.698;2022-08-01T06:47:33;8.73;;;6.20;;
8837;SDS011;4455;50.880;4.698;2022-08-01T06:49:58;6.50;;;5.47;;
8837;SDS011;4455;50.880;4.698;2022-08-01T06:52:24;9.43;;;6.50;;
8837;SDS011;4455;50.880;4.698;2022-08-01T06:54:50;6.87;;;5.67;;
8837;SDS011;4455;50.880;4.698;2022-08-01T06:57:16;11.00;;;6.43;;
8837;SDS011;4455;50.880;4.698;2022-08-01T06:59:43;8.37;;;5.50;;
8837;SDS011;4455;50.880;4.698;2022-08-01T07:02:08;7.17;;;5.93;;
8837;SDS011;4455;50.880;4.698;2022-08-01T07:04:34;6.30;;;5.40;;
8837;SDS011;4455;50.880;4.698;2022-08-01T07:07:00;8.23;;;5.53;;
8837;SDS011;4455;50.880;4.698;2022-08-01T07:09:26;8.63;;;5.40;;
8837;SDS011;4455;50.880;4.698;2022-08-01T07:11:52;6.30;;;5.00;;
8837;SDS011;4455;50.880;4.698;2022-08-01T07:14:19;8.17;;;5.57;;
8837;SDS011;4455;50.880;4.698;2022-08-01T07:16:46;6.20;;;5.30;;
8837;SDS011;4455;50.880;4.698;2022-08-01T07:19:12;7.17;;;5.40;;
8837;SDS011;4455;50.880;4.698;2022-08-01T07:21:38;9.53;;;5.93;;
8837;SDS011;4455;50.880;4.698;2022-08-01T07:24:05;9.27;;;5.50;;
8837;SDS011;4455;50.880;4.698;2022-08-01T07:26:31;9.10;;;6.50;;
8837;SDS011;4455;50.880;4.698;2022-08-01T07:28:57;47.87;;;11.10;;
8837;SDS011;4455;50.880;4.698;2022-08-01T07:31:23;9.43;;;5.97;;
8837;SDS011;4455;50.880;4.698;2022-08-01T07:33:49;8.17;;;5.47;;
8837;SDS011;4455;50.880;4.698;2022-08-01T07:36:15;5.93;;;5.30;;
8837;SDS011;4455;50.880;4.698;2022-08-01T07:38:42;7.50;;;6.00;;
8837;SDS011;4455;50.880;4.698;2022-08-01T07:41:08;8.00;;;5.97;;
8837;SDS011;4455;50.880;4.698;2022-08-01T07:43:34;6.07;;;5.57;;
8837;SDS011;4455;50.880;4.698;2022-08-01T07:46:01;8.40;;;5.40;;
8837;SDS011;4455;50.880;4.698;2022-08-01T07:48:28;7.23;;;6.50;;
8837;SDS011;4455;50.880;4.698;2022-08-01T07:50:54;6.17;;;5.53;;
8837;SDS011;4455;50.880;4.698;2022-08-01T07:53:20;8.20;;;6.80;;
8837;SDS011;4455;50.880;4.698;2022-08-01T07:55:46;8.30;;;6.27;;
8837;SDS011;4455;50.880;4.698;2022-08-01T07:58:13;6.30;;;5.70;;
8837;SDS011;4455;50.880;4.698;2022-08-01T08:00:39;7.07;;;6.17;;
8837;SDS011;4455;50.880;4.698;2022-08-01T08:03:05;7.57;;;6.23;;
8837;SDS011;4455;50.880;4.698;2022-08-01T08:05:31;10.13;;;6.17;;
8837;SDS011;4455;50.880;4.698;2022-08-01T08:08:07;7.03;;;6.40;;
8837;SDS011;4455;50.880;4.698;2022-08-01T08:10:33;6.00;;;5.50;;
8837;SDS011;4455;50.880;4.698;2022-08-01T08:12:59;7.03;;;5.77;;
8837;SDS011;4455;50.880;4.698;2022-08-01T08:15:28;5.63;;;5.13;;
8837;SDS011;4455;50.880;4.698;2022-08-01T08:17:54;7.00;;;6.40;;
8837;SDS011;4455;50.880;4.698;2022-08-01T08:20:20;6.63;;;6.00;;
8837;SDS011;4455;50.880;4.698;2022-08-01T08:22:52;8.23;;;6.77;;
8837;SDS011;4455;50.880;4.698;2022-08-01T08:25:18;7.33;;;6.03;;
8837;SDS011;4455;50.880;4.698;2022-08-01T08:27:45;6.60;;;5.63;;
8837;SDS011;4455;50.880;4.698;2022-08-01T08:30:11;7.97;;;6.60;;
8837;SDS011;4455;50.880;4.698;2022-08-01T08:32:38;6.23;;;5.63;;
8837;SDS011;4455;50.880;4.698;2022-08-01T08:35:05;7.80;;;6.10;;
8837;SDS011;4455;50.880;4.698;2022-08-01T08:37:32;6.87;;;5.80;;
8837;SDS011;4455;50.880;4.698;2022-08-01T08:39:58;7.10;;;5.80;;
8837;SDS011;4455;50.880;4.698;2022-08-01T08:42:24;8.43;;;5.73;;
8837;SDS011;4455;50.880;4.698;2022-08-01T08:44:50;5.83;;;5.27;;
8837;SDS011;4455;50.880;4.698;2022-08-01T08:47:16;4.93;;;4.53;;
8837;SDS011;4455;50.880;4.698;2022-08-01T08:49:44;4.17;;;3.77;;
8837;SDS011;4455;50.880;4.698;2022-08-01T08:52:10;5.50;;;4.57;;
8837;SDS011;4455;50.880;4.698;2022-08-01T08:54:39;5.00;;;4.60;;
8837;SDS011;4455;50.880;4.698;2022-08-01T08:57:06;4.40;;;4.00;;
8837;SDS011;4455;50.880;4.698;2022-08-01T08:59:32;3.87;;;3.47;;
8837;SDS011;4455;50.880;4.698;2022-08-01T09:01:58;4.83;;;4.43;;
8837;SDS011;4455;50.880;4.698;2022-08-01T09:04:25;3.90;;;3.57;;
8837;SDS011;4455;50.880;4.698;2022-08-01T09:06:52;4.47;;;3.10;;
8837;SDS011;4455;50.880;4.698;2022-08-01T09:09:19;5.27;;;3.50;;
8837;SDS011;4455;50.880;4.698;2022-08-01T09:11:44;3.60;;;3.30;;
8837;SDS011;4455;50.880;4.698;2022-08-01T09:14:17;3.80;;;2.87;;
8837;SDS011;4455;50.880;4.698;2022-08-01T09:16:58;5.23;;;3.40;;
8837;SDS011;4455;50.880;4.698;2022-08-01T09:19:36;3.40;;;3.10;;
8837;SDS011;4455;50.880;4.698;2022-08-01T09:22:03;4.43;;;4.03;;
8837;SDS011;4455;50.880;4.698;2022-08-01T09:24:33;6.43;;;4.50;;
8837;SDS011;4455;50.880;4.698;2022-08-01T09:27:00;4.80;;;3.57;;
8837;SDS011;4455;50.880;4.698;2022-08-01T09:29:39;4.93;;;3.93;;
8837;SDS011;4455;50.880;4.698;2022-08-01T09:32:05;4.33;;;3.93;;
8837;SDS011;4455;50.880;4.698;2022-08-01T09:34:31;5.00;;;4.60;;
8837;SDS011;4455;50.880;4.698;2022-08-01T09:36:59;6.10;;;5.50;;
8837;SDS011;4455;50.880;4.698;2022-08-01T09:39:27;5.93;;;5.40;;
8837;SDS011;4455;50.880;4.698;2022-08-01T09:41:55;6.40;;;5.73;;
8837;SDS011;4455;50.880;4.698;2022-08-01T09:44:41;5.97;;;5.33;;
8837;SDS011;4455;50.880;4.698;2022-08-01T09:47:10;5.40;;;4.90;;
8837;SDS011;4455;50.880;4.698;2022-08-01T09:49:37;5.70;;;5.30;;
8837;SDS011;4455;50.880;4.698;2022-08-01T09:52:14;4.83;;;4.43;;
8837;SDS011;4455;50.880;4.698;2022-08-01T09:54:53;4.90;;;3.80;;
8837;SDS011;4455;50.880;4.698;2022-08-01T09:57:23;4.57;;;3.60;;
8837;SDS011;4455;50.880;4.698;2022-08-01T09:59:50;5.37;;;3.77;;
8837;SDS011;4455;50.880;4.698;2022-08-01T10:02:28;3.90;;;3.60;;
8837;SDS011;4455;50.880;4.698;2022-08-01T10:05:02;3.90;;;3.30;;
8837;SDS011;4455;50.880;4.698;2022-08-01T10:07:30;5.03;;;4.00;;
8837;SDS011;4455;50.880;4.698;2022-08-01T10:10:08;3.67;;;3.20;;
8837;SDS011;4455;50.880;4.698;2022-08-01T10:12:39;4.20;;;3.80;;
8837;SDS011;4455;50.880;4.698;2022-08-01T10:15:06;3.57;;;3.27;;
8837;SDS011;4455;50.880;4.698;2022-08-01T10:17:33;4.30;;;3.20;;
8837;SDS011;4455;50.880;4.698;2022-08-01T10:20:02;4.33;;;3.33;;
8837;SDS011;4455;50.880;4.698;2022-08-01T10:22:29;2.83;;;2.53;;
8837;SDS011;4455;50.880;4.698;2022-08-01T10:24:56;4.47;;;3.10;;
8837;SDS011;4455;50.880;4.698;2022-08-01T10:27:27;3.23;;;2.93;;
8837;SDS011;4455;50.880;4.698;2022-08-01T10:30:01;4.07;;;3.20;;
8837;SDS011;4455;50.880;4.698;2022-08-01T10:32:32;3.17;;;2.93;;
8837;SDS011;4455;50.880;4.698;2022-08-01T10:35:00;4.50;;;3.30;;
8837;SDS011;4455;50.880;4.698;2022-08-01T10:37:26;3.90;;;3.50;;
8837;SDS011;4455;50.880;4.698;2022-08-01T10:39:52;3.20;;;3.00;;
8837;SDS011;4455;50.880;4.698;2022-08-01T10:42:19;3.50;;;3.20;;
8837;SDS011;4455;50.880;4.698;2022-08-01T10:44:45;4.17;;;3.40;;
8837;SDS011;4455;50.880;4.698;2022-08-01T10:47:13;4.77;;;3.50;;
8837;SDS011;4455;50.880;4.698;2022-08-01T10:49:51;3.90;;;3.60;;
8837;SDS011;4455;50.880;4.698;2022-08-01T10:52:23;3.20;;;3.00;;
8837;SDS011;4455;50.880;4.698;2022-08-01T10:54:49;3.20;;;3.00;;
8837;SDS011;4455;50.880;4.698;2022-08-01T10:57:43;3.73;;;3.43;;
8837;SDS011;4455;50.880;4.698;2022-08-01T11:00:14;3.20;;;2.80;;
8837;SDS011;4455;50.880;4.698;2022-08-01T11:02:59;5.00;;;3.67;;
8837;SDS011;4455;50.880;4.698;2022-08-01T11:05:26;4.03;;;3.30;;
8837;SDS011;4455;50.880;4.698;2022-08-01T11:07:57;4.17;;;3.77;;
8837;SDS011;4455;50.880;4.698;2022-08-01T11:10:37;3.80;;;3.40;;
8837;SDS011;4455;50.880;4.698;2022-08-01T11:13:10;3.70;;;3.40;;
8837;SDS011;4455;50.880;4.698;2022-08-01T11:15:40;3.60;;;3.30;;
8837;SDS011;4455;50.880;4.698;2022-08-01T11:20:55;2.93;;;2.73;;
8837;SDS011;4455;50.880;4.698;2022-08-01T11:23:23;2.90;;;2.70;;
8837;SDS011;4455;50.880;4.698;2022-08-01T11:28:24;3.30;;;3.00;;
8837;SDS011;4455;50.880;4.698;2022-08-01T11:33:50;4.67;;;3.20;;
8837;SDS011;4455;50.880;4.698;2022-08-01T11:36:17;3.77;;;2.80;;
8837;SDS011;4455;50.880;4.698;2022-08-01T11:38:49;3.23;;;2.93;;
8837;SDS011;4455;50.880;4.698;2022-08-01T11:41:36;4.27;;;3.20;;
8837;SDS011;4455;50.880;4.698;2022-08-01T11:44:12;3.33;;;3.00;;
8837;SDS011;4455;50.880;4.698;2022-08-01T11:52:05;3.37;;;2.70;;
8837;SDS011;4455;50.880;4.698;2022-08-01T11:54:38;2.67;;;2.47;;
8837;SDS011;4455;50.880;4.698;2022-08-01T11:57:11;2.80;;;2.60;;
8837;SDS011;4455;50.880;4.698;2022-08-01T11:59:43;2.37;;;2.13;;
8837;SDS011;4455;50.880;4.698;2022-08-01T12:02:19;2.80;;;2.23;;
8837;SDS011;4455;50.880;4.698;2022-08-01T12:07:16;2.37;;;2.17;;
8837;SDS011;4455;50.880;4.698;2022-08-01T12:09:43;3.20;;;2.03;;
8837;SDS011;4455;50.880;4.698;2022-08-01T12:12:11;1.83;;;1.53;;
8837;SDS011;4455;50.880;4.698;2022-08-01T12:14:42;2.13;;;1.80;;
8837;SDS011;4455;50.880;4.698;2022-08-01T12:17:08;3.00;;;1.80;;
8837;SDS011;4455;50.880;4.698;2022-08-01T12:19:34;2.00;;;1.70;;
8837;SDS011;4455;50.880;4.698;2022-08-01T12:22:11;1.50;;;1.40;;
8837;SDS011;4455;50.880;4.698;2022-08-01T12:24:39;2.03;;;1.50;;
8837;SDS011;4455;50.880;4.698;2022-08-01T12:27:07;2.53;;;1.20;;
8837;SDS011;4455;50.880;4.698;2022-08-01T12:29:41;2.33;;;1.33;;
8837;SDS011;4455;50.880;4.698;2022-08-01T12:32:21;3.07;;;1.40;;
8837;SDS011;4455;50.880;4.698;2022-08-01T12:34:54;1.43;;;1.30;;
8837;SDS011;4455;50.880;4.698;2022-08-01T12:39:49;2.80;;;1.67;;
8837;SDS011;4455;50.880;4.698;2022-08-01T12:42:16;3.10;;;1.33;;
8837;SDS011;4455;50.880;4.698;2022-08-01T12:44:43;1.83;;;1.37;;
8837;SDS011;4455;50.880;4.698;2022-08-01T12:47:13;1.83;;;1.27;;
8837;SDS011;4455;50.880;4.698;2022-08-01T12:49:40;3.70;;;1.67;;
8837;SDS011;4455;50.880;4.698;2022-08-01T12:52:08;2.10;;;1.43;;
8837;SDS011;4455;50.880;4.698;2022-08-01T12:57:40;2.70;;;1.40;;
8837;SDS011;4455;50.880;4.698;2022-08-01T13:00:08;2.23;;;1.30;;
8837;SDS011;4455;50.880;4.698;2022-08-01T13:02:35;6.20;;;1.70;;
8837;SDS011;4455;50.880;4.698;2022-08-01T13:05:01;1.13;;;1.03;;
8837;SDS011;4455;50.880;4.698;2022-08-01T13:10:14;1.50;;;1.40;;
8837;SDS011;4455;50.880;4.698;2022-08-01T13:12:56;3.73;;;1.50;;
8837;SDS011;4455;50.880;4.698;2022-08-01T13:15:29;1.93;;;1.40;;
8837;SDS011;4455;50.880;4.698;2022-08-01T13:18:00;2.47;;;1.50;;
8837;SDS011;4455;50.880;4.698;2022-08-01T13:20:46;2.67;;;1.40;;
8837;SDS011;4455;50.880;4.698;2022-08-01T13:23:17;1.40;;;1.30;;
8837;SDS011;4455;50.880;4.698;2022-08-01T13:25:49;2.07;;;1.40;;
8837;SDS011;4455;50.880;4.698;2022-08-01T13:28:23;1.93;;;1.40;;
8837;SDS011;4455;50.880;4.698;2022-08-01T13:30:51;1.57;;;1.20;;
8837;SDS011;4455;50.880;4.698;2022-08-01T13:33:22;2.93;;;1.37;;
8837;SDS011;4455;50.880;4.698;2022-08-01T13:35:49;2.50;;;1.43;;
8837;SDS011;4455;50.880;4.698;2022-08-01T13:38:18;2.80;;;1.27;;
8837;SDS011;4455;50.880;4.698;2022-08-01T13:40:45;1.80;;;1.30;;
8837;SDS011;4455;50.880;4.698;2022-08-01T13:43:11;3.03;;;1.37;;
8837;SDS011;4455;50.880;4.698;2022-08-01T13:45:37;1.20;;;1.10;;
8837;SDS011;4455;50.880;4.698;2022-08-01T13:48:04;2.30;;;1.20;;
8837;SDS011;4455;50.880;4.698;2022-08-01T13:50:30;3.47;;;1.63;;
8837;SDS011;4455;50.880;4.698;2022-08-01T13:52:55;1.63;;;1.20;;
8837;SDS011;4455;50.880;4.698;2022-08-01T13:55:21;3.23;;;1.50;;
8837;SDS011;4455;50.880;4.698;2022-08-01T13:57:47;2.73;;;1.60;;
8837;SDS011;4455;50.880;4.698;2022-08-01T14:00:13;3.27;;;1.40;;
8837;SDS011;4455;50.880;4.698;2022-08-01T14:02:39;2.70;;;1.30;;
8837;SDS011;4455;50.880;4.698;2022-08-01T14:05:05;2.30;;;1.23;;
8837;SDS011;4455;50.880;4.698;2022-08-01T14:07:33;2.20;;;1.43;;
8837;SDS011;4455;50.880;4.698;2022-08-01T14:09:58;3.00;;;1.77;;
8837;SDS011;4455;50.880;4.698;2022-08-01T14:12:24;3.00;;;1.30;;
8837;SDS011;4455;50.880;4.698;2022-08-01T14:14:50;2.50;;;1.30;;
8837;SDS011;4455;50.880;4.698;2022-08-01T14:17:16;2.53;;;1.53;;
8837;SDS011;4455;50.880;4.698;2022-08-01T14:19:41;2.70;;;1.40;;
8837;SDS011;4455;50.880;4.698;2022-08-01T14:22:07;1.43;;;1.30;;
8837;SDS011;4455;50.880;4.698;2022-08-01T14:24:33;1.50;;;1.10;;
8837;SDS011;4455;50.880;4.698;2022-08-01T14:26:59;1.43;;;1.23;;
8837;SDS011;4455;50.880;4.698;2022-08-01T14:29:24;1.60;;;1.23;;
8837;SDS011;4455;50.880;4.698;2022-08-01T14:31:50;2.53;;;1.27;;
8837;SDS011;4455;50.880;4.698;2022-08-01T14:34:16;2.37;;;1.60;;
8837;SDS011;4455;50.880;4.698;2022-08-01T14:36:42;2.37;;;1.43;;
8837;SDS011;4455;50.880;4.698;2022-08-01T14:39:07;3.73;;;1.37;;
8837;SDS011;4455;50.880;4.698;2022-08-01T14:41:34;1.40;;;1.30;;
8837;SDS011;4455;50.880;4.698;2022-08-01T14:44:00;2.10;;;1.40;;
8837;SDS011;4455;50.880;4.698;2022-08-01T14:46:27;2.80;;;1.33;;
8837;SDS011;4455;50.880;4.698;2022-08-01T14:48:53;1.77;;;1.30;;
8837;SDS011;4455;50.880;4.698;2022-08-01T14:51:19;4.23;;;1.60;;
8837;SDS011;4455;50.880;4.698;2022-08-01T14:53:45;2.03;;;1.40;;
8837;SDS011;4455;50.880;4.698;2022-08-01T14:56:11;2.03;;;1.47;;
8837;SDS011;4455;50.880;4.698;2022-08-01T14:58:37;3.17;;;1.57;;
8837;SDS011;4455;50.880;4.698;2022-08-01T15:01:02;1.90;;;1.20;;
8837;SDS011;4455;50.880;4.698;2022-08-01T15:03:30;2.60;;;1.70;;
8837;SDS011;4455;50.880;4.698;2022-08-01T15:05:56;2.20;;;1.30;;
8837;SDS011;4455;50.880;4.698;2022-08-01T15:08:23;2.63;;;1.60;;
8837;SDS011;4455;50.880;4.698;2022-08-01T15:10:49;4.07;;;1.33;;
8837;SDS011;4455;50.880;4.698;2022-08-01T15:13:14;3.17;;;1.60;;
8837;SDS011;4455;50.880;4.698;2022-08-01T15:15:40;2.80;;;1.50;;
8837;SDS011;4455;50.880;4.698;2022-08-01T15:18:07;1.97;;;1.50;;
8837;SDS011;4455;50.880;4.698;2022-08-01T15:20:33;2.00;;;1.27;;
8837;SDS011;4455;50.880;4.698;2022-08-01T15:22:59;1.83;;;1.30;;
8837;SDS011;4455;50.880;4.698;2022-08-01T15:25:25;1.20;;;1.10;;
8837;SDS011;4455;50.880;4.698;2022-08-01T15:27:51;2.90;;;1.90;;
8837;SDS011;4455;50.880;4.698;2022-08-01T15:30:16;2.60;;;1.40;;
8837;SDS011;4455;50.880;4.698;2022-08-01T15:32:42;2.93;;;1.20;;
8837;SDS011;4455;50.880;4.698;2022-08-01T15:35:09;3.00;;;1.30;;
8837;SDS011;4455;50.880;4.698;2022-08-01T15:37:35;2.47;;;1.33;;
8837;SDS011;4455;50.880;4.698;2022-08-01T15:40:01;1.47;;;1.20;;
8837;SDS011;4455;50.880;4.698;2022-08-01T15:42:27;1.87;;;1.37;;
8837;SDS011;4455;50.880;4.698;2022-08-01T15:44:53;2.17;;;1.57;;
8837;SDS011;4455;50.880;4.698;2022-08-01T15:47:19;1.97;;;1.10;;
8837;SDS011;4455;50.880;4.698;2022-08-01T15:49:45;1.60;;;1.23;;
8837;SDS011;4455;50.880;4.698;2022-08-01T15:52:11;1.43;;;1.30;;
8837;SDS011;4455;50.880;4.698;2022-08-01T15:54:37;1.90;;;1.43;;
8837;SDS011;4455;50.880;4.698;2022-08-01T15:57:05;1.87;;;1.30;;
8837;SDS011;4455;50.880;4.698;2022-08-01T15:59:31;1.50;;;1.40;;